Flight Track Log - Related Links

Times and Time Zones

All times are in EST time to prevent confusion due to time zone crossing. See the DAL581 flight status page for this flight to view local times or setup timezone preferences in your user account.

Time Position Orientation Groundspeed Altitude Reporting Facility
EST Latitude Longitude Course Direction KTS MPH feet Rate Location/Type
Fri 22:16:39 47.4278 -122.3078 321° Northwest 170 196 1,200  Level Seattle Center
Fri 22:17:06 47.4053 -122.3081 180° South 172 198 2,200 2,060 Climbing Seattle Center
Fri 22:17:46 47.3706 -122.3100 182° South 197 227 3,500 1,869 Climbing Seattle Center
Fri 22:18:07 47.3469 -122.3108 181° South 204 235 4,100 2,341 Climbing Seattle Center
Fri 22:19:08 47.3103 -122.3833 233° Southwest 248 285 6,700 2,705 Climbing Seattle Center
Fri 22:20:00 47.4653 -122.6940 320° Northwest  Level FlightAware Approximate
Fri 22:20:09 47.3583 -122.4644 311° West 261 300 9,600  Level Seattle Center
Fri 22:21:00 47.5523 -122.8027 321° Northwest  Level FlightAware Approximate
Fri 22:21:10 47.4128 -122.5503 313° West 291 335 11,200  Level Seattle Center
Fri 22:22:11 47.4789 -122.6528 314° West 344 396 13,200 2,430 Climbing Seattle Center
Fri 22:23:11 47.5533 -122.7728 313° West 367 422 16,100 2,628 Climbing Seattle Center
Fri 22:24:12 47.6247 -122.8864 313° West 371 427 18,500 2,311 Climbing Seattle Center
Fri 22:25:13 47.6872 -123.0136 306° West 381 438 20,800 2,164 Climbing Seattle Center
Fri 22:26:14 47.7439 -123.1500 302° West 387 445 22,900 1,574 Climbing Seattle Center
Fri 22:27:15 47.8011 -123.2875 302° West 390 449 24,000 541 Climbing Seattle Center
Fri 22:28:16 47.8592 -123.4258 302° West 394 453 24,000  Level Seattle Center
Fri 22:29:16 47.9147 -123.5650 301° West 393 452 24,000  Level Seattle Center
Fri 22:30:17 47.9633 -123.7044 298° West 395 455 24,000  Level Seattle Center
Fri 22:31:18 48.0175 -123.8506 299° West 402 463 24,000  Level Seattle Center
Fri 22:32:19 48.0706 -123.9953 299° West 399 459 24,000  Level Seattle Center
Fri 22:33:20 48.1233 -124.1375 299° West 393 452 24,000  Level Seattle Center
Fri 22:34:20 48.1750 -124.2806 298° West 393 452 24,000  Level Seattle Center
Fri 22:35:21 48.2272 -124.4256 298° West 394 453 24,000  Level Seattle Center
Fri 22:36:22 48.2792 -124.5697 298° West 393 452 24,000  Level Seattle Center
Fri 22:37:12 48.3333 -124.7000 302° West 400 460 24,000  Level Vancouver Center
Fri 22:38:12 48.4167 -124.8000 321° Northwest 400 460 24,000  Level Vancouver Center
Fri 22:39:12 48.5000 -124.9333 313° West 400 460 24,000  Level Vancouver Center
Fri 22:40:12 48.5667 -125.0333 315° West 400 460 24,000  Level Vancouver Center
Fri 22:41:12 48.6667 -125.1667 319° Northwest 400 460 24,000  Level Vancouver Center
Fri 22:42:12 48.7333 -125.3000 307° West 410 472 24,000  Level Vancouver Center
Fri 22:43:12 48.8333 -125.4167 322° Northwest 410 472 24,000  Level Vancouver Center
Fri 22:44:12 48.9000 -125.5333 311° West 410 472 24,000  Level Vancouver Center
Fri 22:45:12 48.9667 -125.6500 311° West 410 472 24,000  Level Vancouver Center
Fri 22:46:12 49.0500 -125.7667 317° Northwest 410 472 24,000  Level Vancouver Center
Fri 22:47:12 49.1333 -125.8833 318° Northwest 410 472 24,000  Level Vancouver Center
Fri 22:48:12 49.2333 -126.0167 319° Northwest 410 472 24,000  Level Vancouver Center
Fri 22:49:12 49.3000 -126.1333 311° West 410 472 24,000  Level Vancouver Center
Fri 22:50:12 49.4000 -126.2667 319° Northwest 410 472 24,000  Level Vancouver Center
Fri 22:51:12 49.4667 -126.3667 316° Northwest 420 483 24,000  Level Vancouver Center
Fri 22:52:12 49.5500 -126.5000 314° West 410 472 24,000  Level Vancouver Center
Fri 22:53:12 49.6333 -126.6333 314° West 410 472 24,000  Level Vancouver Center
Fri 22:54:12 49.7167 -126.7667 314° West 420 483 24,000  Level Vancouver Center
Fri 22:55:12 49.8000 -126.8833 318° Northwest 420 483 24,000  Level Vancouver Center
Fri 22:56:12 49.8833 -127.0167 314° West 420 483 24,000  Level Vancouver Center
Fri 22:57:12 49.9667 -127.1500 314° West 420 483 24,000  Level Vancouver Center
Fri 22:58:12 50.0333 -127.2500 316° Northwest 420 483 24,000  Level Vancouver Center
Fri 22:59:12 50.1167 -127.4000 311° West 420 483 24,000  Level Vancouver Center
Fri 23:00:12 50.2000 -127.5333 314° West 410 472 24,000  Level Vancouver Center
Fri 23:01:12 50.3000 -127.6667 320° Northwest 420 483 24,000  Level Vancouver Center
Fri 23:02:12 50.3500 -127.7833 304° West 410 472 24,000  Level Vancouver Center
Fri 23:03:12 50.4333 -127.9167 314° West 420 483 24,000  Level Vancouver Center
Fri 23:04:12 50.5333 -128.0500 320° Northwest 420 483 24,000  Level Vancouver Center
Fri 23:05:12 50.6167 -128.1667 318° Northwest 420 483 24,000  Level Vancouver Center
Fri 23:06:12 50.6833 -128.3000 308° West 420 483 24,000  Level Vancouver Center
Fri 23:07:12 50.7667 -128.4500 311° West 420 483 24,000  Level Vancouver Center
Fri 23:08:12 50.8500 -128.5667 319° Northwest 420 483 24,000  Level Vancouver Center
Fri 23:09:12 50.9167 -128.7000 308° West 420 483 24,000  Level Vancouver Center
Fri 23:10:12 51.0000 -128.8500 311° West 420 483 24,000  Level Vancouver Center
Fri 23:11:12 51.1000 -128.9833 320° Northwest 420 483 24,000  Level Vancouver Center
Fri 23:12:12 51.1667 -129.1000 312° West 420 483 24,000  Level Vancouver Center
Fri 23:13:12 51.2500 -129.2500 312° West 420 483 24,000  Level Vancouver Center
Fri 23:14:12 51.3333 -129.3833 315° West 420 483 24,000  Level Vancouver Center
Fri 23:15:12 51.4000 -129.5000 313° West 420 483 24,000  Level Vancouver Center
Fri 23:16:12 51.5000 -129.6500 317° Northwest 420 483 24,000  Level Vancouver Center
Fri 23:17:12 51.5667 -129.8000 306° West 420 483 24,000  Level Vancouver Center
Fri 23:18:12 51.6500 -129.9333 315° West 420 483 24,000  Level Vancouver Center
Fri 23:19:12 51.7333 -130.0500 319° Northwest 420 483 24,000  Level Vancouver Center
Fri 23:20:12 51.8000 -130.2000 306° West 420 483 24,000  Level Vancouver Center
Fri 23:21:12 51.8833 -130.3500 312° West 420 483 24,000  Level Vancouver Center
Fri 23:22:12 51.9667 -130.5000 312° West 420 483 24,000  Level Vancouver Center
Fri 23:23:12 52.0500 -130.6167 319° Northwest 420 483 24,000  Level Vancouver Center
Fri 23:24:12 52.1167 -130.7667 306° West 420 483 24,000  Level Vancouver Center
Fri 23:25:12 52.2000 -130.9167 312° West 420 483 24,000  Level Vancouver Center
Fri 23:26:12 52.2667 -131.0667 306° West 420 483 24,000  Level Vancouver Center
Fri 23:27:12 52.3500 -131.1833 319° Northwest 420 483 24,000  Level Vancouver Center
Fri 23:28:12 52.4333 -131.3333 312° West 420 483 24,000  Level Vancouver Center
Fri 23:29:11 52.5167 -131.4833 312° West 420 483 24,000  Level Vancouver Center
Fri 23:30:11 52.5833 -131.6167 309° West 420 483 24,000  Level Vancouver Center
Fri 23:31:11 52.6667 -131.7667 313° West 420 483 24,000  Level Vancouver Center
Fri 23:32:11 52.7333 -131.9167 306° West 420 483 24,000  Level Vancouver Center
Fri 23:33:11 52.8333 -132.0667 318° Northwest 430 495 24,000  Level Vancouver Center
Fri 23:34:11 52.9000 -132.2000 310° West 430 495 24,000  Level Vancouver Center
Fri 23:35:11 52.9833 -132.3500 313° West 420 483 24,000  Level Vancouver Center
Fri 23:36:11 53.0500 -132.5000 307° West 420 483 24,000  Level Vancouver Center
Fri 23:37:11 53.1167 -132.6500 307° West 420 483 24,000  Level Vancouver Center
Fri 23:38:11 53.2167 -132.8167 315° West 420 483 24,000  Level Vancouver Center
Fri 23:39:11 53.2833 -132.9500 310° West 420 483 24,000  Level Vancouver Center
Fri 23:40:11 53.3500 -133.1000 307° West 420 483 24,000  Level Vancouver Center
Fri 23:41:11 53.4333 -133.2500 313° West 420 483 24,000  Level Vancouver Center
Fri 23:42:11 53.5000 -133.4167 304° West 420 483 24,000 250 Level Vancouver Center
Fri 23:43:11 53.5667 -133.5500 310° West 420 483 24,500 1,200 Climbing Vancouver Center
Fri 23:44:11 53.6667 -133.7000 318° Northwest 420 483 26,400 1,850 Climbing Vancouver Center
Fri 23:45:11 53.7333 -133.8667 304° West 430 495 28,200 1,750 Climbing Vancouver Center
Fri 23:46:11 53.8000 -134.0000 310° West 430 495 29,900 1,650 Climbing Vancouver Center
Fri 23:47:11 53.8833 -134.1500 313° West 430 495 31,500 1,050 Climbing Vancouver Center
Fri 23:48:11 53.9667 -134.3167 310° West 430 495 32,000 250 Climbing Vancouver Center
Fri 23:49:11 54.0333 -134.4833 304° West 430 495 32,000  Level Vancouver Center
Fri 23:50:11 54.1000 -134.6333 307° West 440 506 32,000  Level Vancouver Center
Fri 23:51:11 54.1833 -134.8000 311° West 440 506 32,000  Level Vancouver Center
Fri 23:52:11 54.2667 -134.9333 317° Northwest 450 518 32,000  Level Vancouver Center
Fri 23:53:11 54.3500 -135.1333 306° West 450 518 32,000  Level Vancouver Center
Fri 23:54:27 54.4500 -135.2833 319° Northwest 440 506 32,000  Level Anchorage Center
Fri 23:55:27 54.5167 -135.4167 311° West 440 506 32,000  Level Anchorage Center
Fri 23:56:28 54.6000 -135.5833 311° West 440 506 32,000  Level Anchorage Center
Fri 23:57:28 54.6667 -135.7500 305° West 440 506 32,000  Level Anchorage Center
Fri 23:58:28 54.7500 -135.9167 311° West 440 506 32,000  Level Anchorage Center
Fri 23:59:29 54.8333 -136.1000 308° West 440 506 32,000  Level Anchorage Center
Sat 00:00:11 54.8667 -136.2833 288° West 440 506 32,000  Level Vancouver Center
Sat 00:01:11 54.9500 -136.4500 311° West 440 506 32,000  Level Vancouver Center
Sat 00:02:11 55.0333 -136.5833 318° Northwest 440 506 32,000  Level Vancouver Center
Sat 00:03:11 55.1167 -136.7667 309° West 440 506 32,000  Level Vancouver Center
Sat 00:04:11 55.1833 -136.9333 305° West 440 506 32,000  Level Vancouver Center
Sat 00:05:31 55.2833 -137.1000 317° Northwest 430 495 32,000  Level Anchorage Center
Sat 00:06:31 55.3667 -137.2833 309° West 440 506 32,000  Level Anchorage Center
Sat 00:07:11 55.4167 -137.4500 298° West 440 506 32,000  Level Vancouver Center
Sat 00:08:11 55.4667 -137.6167 298° West 440 506 32,000  Level Vancouver Center
Sat 00:09:11 55.5667 -137.7667 320° Northwest 440 506 32,000 300 Level Vancouver Center
Sat 00:10:11 55.6167 -137.9500 296° West 440 506 32,600 900 Climbing Vancouver Center
Sat 00:11:11 55.7000 -138.1333 309° West 440 506 33,800 700 Climbing Vancouver Center
Sat 00:12:11 55.7667 -138.3000 305° West 440 506 34,000 100 Climbing Vancouver Center
Sat 00:13:11 55.8500 -138.4833 309° West 440 506 34,000  Level Vancouver Center
Sat 00:14:11 55.9167 -138.6500 306° West 440 506 34,000  Level Vancouver Center
Sat 00:15:11 56.0000 -138.8333 309° West 450 518 34,000  Level Vancouver Center
Sat 00:16:11 56.0667 -139.0167 303° West 450 518 34,000  Level Vancouver Center
Sat 00:17:11 56.1333 -139.2000 303° West 450 518 34,000  Level Vancouver Center
Sat 00:18:11 56.2167 -139.3833 309° West 450 518 34,000  Level Vancouver Center
Sat 00:19:11 56.2833 -139.5500 306° West 450 518 34,000  Level Vancouver Center
Sat 00:20:11 56.3500 -139.7500 301° West 450 518 34,000  Level Vancouver Center
Sat 00:21:11 56.4333 -139.9500 307° West 460 529 34,000  Level Vancouver Center
Sat 00:22:11 56.5000 -140.1333 303° West 460 529 34,000  Level Vancouver Center
Sat 00:23:11 56.5333 -140.3167 288° West 460 529 34,000  Level Vancouver Center
Sat 00:24:11 56.6000 -140.5167 301° West 450 518 34,000  Level Vancouver Center
Sat 00:25:11 56.6333 -140.7000 288° West 450 518 34,000  Level Vancouver Center
Sat 00:26:38 56.7167 -140.9333 303° West 450 518 34,000  Level Anchorage Center
Sat 00:27:38 56.7667 -141.1333 295° West 440 506 34,000  Level Anchorage Center
Sat 00:28:39 56.8167 -141.3500 293° West 440 506 34,000  Level Anchorage Center
Sat 00:29:39 56.8667 -141.5500 295° West 440 506 34,000  Level Anchorage Center
Sat 00:30:39 56.9167 -141.7500 295° West 430 495 34,000  Level Anchorage Center
Sat 00:31:40 56.9667 -141.9667 293° West 450 518 34,000  Level Anchorage Center
Sat 00:32:40 57.0167 -142.1833 293° West 440 506 34,000  Level Anchorage Center
Sat 00:33:41 57.0667 -142.3833 295° West 440 506 34,000  Level Anchorage Center
Sat 00:34:41 57.1167 -142.6000 293° West 440 506 34,000  Level Anchorage Center
Sat 00:35:41 57.1667 -142.8167 293° West 450 518 34,000  Level Anchorage Center
Sat 00:36:41 57.2000 -143.0333 286° West 440 506 34,000  Level Anchorage Center
Sat 00:37:42 57.2500 -143.2500 293° West 450 518 34,000  Level Anchorage Center
Sat 00:38:42 57.3000 -143.4667 293° West 440 506 34,000  Level Anchorage Center
Sat 00:39:42 57.3500 -143.6833 293° West 450 518 34,000  Level Anchorage Center
Sat 00:40:43 57.4000 -143.9000 293° West 450 518 34,000  Level Anchorage Center
Sat 00:41:43 57.4333 -144.1167 286° West 440 506 34,000  Level Anchorage Center
Sat 00:42:43 57.4833 -144.3333 293° West 450 518 34,000  Level Anchorage Center
Sat 00:43:44 57.5333 -144.5500 293° West 450 518 34,000  Level Anchorage Center
Sat 00:44:44 57.5667 -144.7667 286° West 440 506 34,000  Level Anchorage Center
Sat 00:45:44 57.6167 -145.0000 292° West 450 518 34,000  Level Anchorage Center
Sat 00:46:45 57.6667 -145.2167 293° West 450 518 34,000  Level Anchorage Center
Sat 00:47:45 57.7000 -145.4333 286° West 450 518 34,000  Level Anchorage Center
Sat 00:48:45 57.7500 -145.6500 293° West 450 518 34,000  Level Anchorage Center
Sat 00:49:46 57.7833 -145.8833 285° West 450 518 34,000  Level Anchorage Center
Sat 00:50:46 57.8333 -146.1000 294° West 450 518 34,000  Level Anchorage Center
Sat 00:51:47 57.8667 -146.3333 285° West 450 518 34,000  Level Anchorage Center
Sat 00:52:47 57.9167 -146.5500 294° West 440 506 34,000  Level Anchorage Center
Sat 00:54:48 58.0000 -147.0167 289° West 470 541 34,000  Level Anchorage Center
Sat 00:55:48 58.0333 -147.2500 285° West 470 541 34,000  Level Anchorage Center
Sat 00:56:48 58.0833 -147.4667 294° West 440 506 34,000  Level Anchorage Center
Sat 00:57:49 58.1167 -147.7000 285° West 440 506 34,000  Level Anchorage Center
Sat 00:58:49 58.1667 -147.9333 292° West 450 518 34,000  Level Anchorage Center
Sat 00:59:49 58.2000 -148.1500 286° West 450 518 34,000  Level Anchorage Center
Sat 01:00:50 58.2333 -148.3833 285° West 450 518 34,000  Level Anchorage Center
Sat 01:01:50 58.2667 -148.6167 285° West 450 518 34,000  Level Anchorage Center
Sat 01:02:50 58.3167 -148.8500 292° West 450 518 34,000  Level Anchorage Center
Sat 01:03:51 58.3500 -149.0833 285° West 450 518 34,000  Level Anchorage Center
Sat 01:04:51 58.3833 -149.3167 285° West 450 518 34,000  Level Anchorage Center
Sat 01:05:51 58.4167 -149.5500 285° West 450 518 34,000  Level Anchorage Center
Sat 01:06:52 58.4667 -149.7833 292° West 450 518 34,000  Level Anchorage Center
Sat 01:07:52 58.5000 -150.0167 285° West 450 518 34,000  Level Anchorage Center
Sat 01:08:53 58.5167 -150.2333 278° West 450 518 34,000  Level Anchorage Center
Sat 01:09:53 58.5500 -150.4667 285° West 440 506 34,000  Level Anchorage Center
Sat 01:10:53 58.5833 -150.7167 284° West 440 506 34,000  Level Anchorage Center
Sat 01:11:54 58.6000 -150.9500 278° West 450 518 34,000  Level Anchorage Center
Sat 01:12:54 58.6333 -151.1833 285° West 460 529 34,000  Level Anchorage Center
Sat 01:13:54 58.6500 -151.4333 277° West 450 518 34,000  Level Anchorage Center
Sat 01:14:55 58.6833 -151.6667 285° West 450 518 34,000  Level Anchorage Center
Sat 01:15:55 58.7000 -151.9000 278° West 450 518 34,000  Level Anchorage Center
Sat 01:16:55 58.7333 -152.1333 285° West 450 518 34,000  Level Anchorage Center
Sat 01:17:56 58.7500 -152.3667 278° West 440 506 34,000  Level Anchorage Center
Sat 01:18:56 58.7833 -152.6000 286° West 440 506 34,000  Level Anchorage Center
Sat 01:19:57 58.8000 -152.8667 277° West 450 518 34,000  Level Anchorage Center
Sat 01:20:57 58.8167 -153.1000 278° West 440 506 34,000  Level Anchorage Center
Sat 01:21:57 58.8500 -153.3333 286° West 440 506 34,000  Level Anchorage Center
Sat 01:22:58 58.8667 -153.5667 278° West 450 518 34,000  Level Anchorage Center
Sat 01:23:58 58.9000 -153.8167 285° West 440 506 34,000  Level Anchorage Center
Sat 01:24:58 58.9167 -154.0500 278° West 450 518 34,000  Level Anchorage Center
Sat 01:25:59 58.9333 -154.2833 278° West 450 518 34,000  Level Anchorage Center
Sat 01:26:59 58.9500 -154.5333 277° West 450 518 34,000  Level Anchorage Center
Sat 01:27:59 58.9667 -154.7667 278° West 450 518 34,000  Level Anchorage Center
Sat 01:29:00 59.0000 -155.0167 285° West 450 518 34,000  Level Anchorage Center
Sat 01:30:00 59.0167 -155.2500 278° West 450 518 34,000  Level Anchorage Center
Sat 01:31:01 59.0333 -155.4833 278° West 440 506 34,000  Level Anchorage Center
Sat 01:32:01 59.0500 -155.7333 277° West 450 518 34,000  Level Anchorage Center
Sat 01:33:01 59.0667 -155.9667 278° West 440 506 34,000  Level Anchorage Center
Sat 01:34:02 59.0833 -156.2000 278° West 440 506 34,000  Level Anchorage Center
Sat 01:35:02 59.1000 -156.5000 276° West 440 506 34,000  Level Anchorage Center
Sat 01:36:02 59.1167 -156.7333 278° West 440 506 34,000  Level Anchorage Center
Sat 01:37:03 59.1333 -156.9667 278° West 440 506 34,000  Level Anchorage Center
Sat 01:38:03 59.1500 -157.2000 278° West 440 506 34,000  Level Anchorage Center
Sat 01:39:03 59.1667 -157.4500 278° West 440 506 34,000  Level Anchorage Center
Sat 01:40:04 59.1833 -157.6833 278° West 440 506 34,000  Level Anchorage Center
Sat 01:41:04 59.1833 -157.9167 270° West 440 506 34,000  Level Anchorage Center
Sat 01:42:04 59.2000 -158.1667 278° West 440 506 34,000  Level Anchorage Center
Sat 01:43:05 59.2167 -158.4000 278° West 440 506 34,000  Level Anchorage Center
Sat 01:44:05 59.2333 -158.6500 278° West 440 506 34,000  Level Anchorage Center
Sat 01:45:05 59.2333 -158.8833 270° West 440 506 34,000  Level Anchorage Center
Sat 01:46:06 59.2500 -159.1333 278° West 440 506 34,000  Level Anchorage Center
Sat 01:47:06 59.2667 -159.3667 278° West 440 506 34,000  Level Anchorage Center
Sat 01:48:06 59.2667 -159.6167 270° West 450 518 34,000  Level Anchorage Center
Sat 01:49:07 59.2833 -159.8500 278° West 440 506 34,000  Level Anchorage Center
Sat 01:50:07 59.3000 -160.1000 278° West 440 506 34,000  Level Anchorage Center
Sat 01:51:07 59.3000 -160.3333 270° West 440 506 34,000  Level Anchorage Center
Sat 01:52:08 59.3167 -160.5833 278° West 440 506 34,000  Level Anchorage Center
Sat 01:53:08 59.3167 -160.8167 270° West 440 506 34,000  Level Anchorage Center
Sat 01:54:09 59.3333 -161.0500 278° West 440 506 34,000  Level Anchorage Center
Sat 01:55:09 59.3333 -161.3000 270° West 430 495 34,000  Level Anchorage Center
Sat 01:56:09 59.3500 -161.5333 278° West 440 506 34,000  Level Anchorage Center
Sat 01:57:10 59.3500 -161.7833 270° West 440 506 34,000  Level Anchorage Center
Sat 01:58:10 59.3500 -162.0167 270° West 430 495 34,000  Level Anchorage Center
Sat 01:59:10 59.3667 -162.2500 278° West 440 506 34,000  Level Anchorage Center
Sat 02:00:11 59.3667 -162.4833 270° West 430 495 34,000  Level Anchorage Center
Sat 02:01:11 59.3667 -162.7833 270° West 430 495 34,000  Level Anchorage Center
Sat 02:02:11 59.3667 -163.0167 270° West 430 495 34,000  Level Anchorage Center
Sat 02:03:12 59.3500 -163.2500 262° West 440 506 34,000  Level Anchorage Center
Sat 02:04:12 59.3333 -163.5000 263° West 440 506 34,000  Level Anchorage Center
Sat 02:05:12 59.3167 -163.7333 262° West 430 495 34,000  Level Anchorage Center
Sat 02:06:13 59.3000 -163.9667 262° West 440 506 34,000  Level Anchorage Center
Sat 02:07:13 59.2833 -164.2167 263° West 440 506 34,000  Level Anchorage Center
Sat 02:08:14 59.2667 -164.4500 262° West 440 506 34,000  Level Anchorage Center
Sat 02:09:16 59.2500 -164.6833 262° West 430 495 34,000  Level Anchorage Center
Sat 02:10:15 59.2333 -164.9167 262° West 430 495 34,000  Level Anchorage Center
Sat 02:11:15 59.2167 -165.1500 262° West 440 506 34,000  Level Anchorage Center
Sat 02:12:14 59.2000 -165.3833 262° West 430 495 34,000  Level Anchorage Center
Sat 02:13:15 59.1667 -165.6167 255° West 430 495 34,000  Level Anchorage Center
Sat 02:14:16 59.1500 -165.8500 262° West 430 495 34,000  Level Anchorage Center
Sat 02:15:16 59.1333 -166.0833 262° West 430 495 34,000  Level Anchorage Center
Sat 02:16:16 59.1167 -166.3167 262° West 430 495 34,000  Level Anchorage Center
Sat 02:17:17 59.0833 -166.5333 253° West 420 483 34,000  Level Anchorage Center
Sat 02:18:16 59.0667 -166.7667 262° West 430 495 34,000  Level Anchorage Center
Sat 02:19:16 59.0333 -167.0000 255° West 430 495 34,000  Level Anchorage Center
Sat 02:20:16 59.0167 -167.2333 262° West 430 495 34,000  Level Anchorage Center
Sat 02:21:16 59.0000 -167.4667 262° West 430 495 34,000  Level Anchorage Center
Sat 02:22:17 58.9667 -167.6833 253° West 430 495 34,000  Level Anchorage Center
Sat 02:23:17 58.9500 -167.9167 262° West 420 483 34,000  Level Anchorage Center
Sat 02:24:16 58.9167 -168.1500 255° West 430 495 34,000  Level Anchorage Center
Sat 02:25:17 58.9000 -168.3833 262° West 440 506 34,000  Level Anchorage Center
Sat 02:26:17 58.8667 -168.6000 254° West 430 495 34,000  Level Anchorage Center
Sat 02:27:17 58.8500 -168.8333 262° West 420 483 34,000  Level Anchorage Center
Sat 02:28:17 58.8167 -169.0500 254° West 430 495 34,000  Level Anchorage Center
Sat 02:29:17 58.8000 -169.2833 262° West 430 495 34,000  Level Anchorage Center
Sat 02:30:17 58.7667 -169.5000 254° West 420 483 34,000  Level Anchorage Center
Sat 02:31:17 58.7333 -169.7333 255° West 430 495 34,000  Level Anchorage Center
Sat 02:32:17 58.7167 -169.9500 262° West 430 495 34,000  Level Anchorage Center
Sat 02:33:17 58.6833 -170.1833 255° West 430 495 34,000  Level Anchorage Center
Sat 02:34:17 58.6500 -170.4000 254° West 430 495 34,000  Level Anchorage Center
Sat 02:35:17 58.6167 -170.6167 254° West 420 483 34,000  Level Anchorage Center
Sat 02:36:17 58.6000 -170.8500 262° West 430 495 34,000  Level Anchorage Center
Sat 02:37:17 58.5667 -171.0833 255° West 430 495 34,000  Level Anchorage Center
Sat 02:38:17 58.5333 -171.3000 254° West 430 495 34,000  Level Anchorage Center
Sat 02:39:18 58.5000 -171.5167 254° West 420 483 34,000  Level Anchorage Center
Sat 02:40:18 58.4667 -171.7500 255° West 430 495 34,000  Level Anchorage Center
Sat 02:41:18 58.4333 -171.9667 254° West 430 495 34,000  Level Anchorage Center
Sat 02:42:18 58.4000 -172.1833 254° West 430 495 34,000  Level Anchorage Center
Sat 02:43:18 58.3667 -172.4167 255° West 440 506 34,000  Level Anchorage Center
Sat 02:44:18 58.3333 -172.6333 254° West 430 495 34,000  Level Anchorage Center
Sat 02:45:18 58.3167 -172.8500 262° West 420 483 34,000  Level Anchorage Center
Sat 02:46:18 58.2667 -173.0833 248° West 430 495 34,000  Level Anchorage Center
Sat 02:47:18 58.2333 -173.3000 254° West 430 495 34,000  Level Anchorage Center
Sat 02:48:18 58.2000 -173.5167 254° West 430 495 34,000  Level Anchorage Center
Sat 02:49:19 58.1667 -173.7500 255° West 440 506 34,000  Level Anchorage Center
Sat 02:50:18 58.1333 -173.9667 254° West 430 495 34,000  Level Anchorage Center
Sat 02:51:18 58.1000 -174.1833 254° West 430 495 34,000  Level Anchorage Center
Sat 02:52:19 58.0667 -174.4000 254° West 440 506 34,000  Level Anchorage Center
Sat 02:53:19 58.0333 -174.6167 254° West 430 495 34,000  Level Anchorage Center
Sat 02:54:19 57.9833 -174.8333 247° West 430 495 34,000  Level Anchorage Center
Sat 02:55:19 57.9500 -175.0500 254° West 430 495 34,000  Level Anchorage Center
Sat 02:56:19 57.9167 -175.2833 255° West 440 506 34,000  Level Anchorage Center
Sat 02:57:19 57.8833 -175.5000 254° West 430 495 34,000  Level Anchorage Center
Sat 02:58:19 57.8333 -175.7167 247° West 440 506 34,000  Level Anchorage Center
Sat 02:59:19 57.8000 -175.9333 254° West 430 495 34,000  Level Anchorage Center
Sat 03:00:19 57.7667 -176.1500 254° West 430 495 34,000  Level Anchorage Center
Sat 03:01:19 57.7167 -176.3667 247° West 460 529 34,000  Level Anchorage Center
Sat 03:04:10 57.6667 -176.7167 251° West 443 510 34,000  Level Anchorage Center
Sat 03:12:40 57.2667 -178.7833 249° West 446 513 34,000  Level Anchorage Center
Sat 03:18:31 57.0000 180.0000 249° West 455 524 34,000  Level Anchorage Center
Sat 03:22:15 56.8167 179.1667 248° West 453 521 34,000  Level Anchorage Center
Sat 03:31:52 56.3500 177.1667 246° West 449 517 34,000  Level Anchorage Center
Sat 03:39:22 55.9500 175.6000 244° Southwest 500 575 34,000  Level Anchorage Center
Sat 03:40:00 55.9375 175.5319 245° Southwest 449 517 34,000  Level FlightAware Transoceanic
Sat 03:40:22 55.9000 175.4333 242° Southwest 470 541 34,000  Level Anchorage Center
Sat 03:41:00 55.8845 175.3300 245° Southwest 449 517 34,000  Level FlightAware Transoceanic
Sat 03:41:22 55.8500 175.2167 248° West 450 518 34,000  Level Anchorage Center
Sat 03:42:00 55.8311 175.1287 245° Southwest 449 517 34,000  Level FlightAware Transoceanic
Sat 03:42:22 55.8000 175.0500 242° Southwest 450 518 34,000  Level Anchorage Center
Sat 03:43:00 55.7774 174.9280 244° Southwest 449 517 34,000  Level FlightAware Transoceanic
Sat 03:43:22 55.7333 174.8167 243° Southwest 460 529 34,000  Level Anchorage Center
Sat 03:44:00 55.7233 174.7278 244° Southwest 449 517 34,000  Level FlightAware Transoceanic
Sat 03:44:22 55.6833 174.6333 244° Southwest 460 529 34,000  Level Anchorage Center
Sat 03:45:22 55.6333 174.4167 248° West 450 518 34,000  Level Anchorage Center
Sat 03:46:22 55.5833 174.2500 242° Southwest 450 518 34,000  Level Anchorage Center
Sat 03:47:23 55.5167 174.0333 242° Southwest 450 518 34,000  Level Anchorage Center
Sat 03:48:22 55.4667 173.8167 248° West 450 518 34,000  Level Anchorage Center
Sat 03:49:23 55.4167 173.6500 242° Southwest 450 518 34,000  Level Anchorage Center
Sat 03:50:23 55.3500 173.4333 242° Southwest 450 518 34,000  Level Anchorage Center
Sat 03:51:23 55.3000 173.2500 244° Southwest 460 529 34,000  Level Anchorage Center
Sat 03:52:23 55.2333 173.0500 240° Southwest 450 518 34,000  Level Anchorage Center
Sat 03:53:23 55.1833 172.8667 245° Southwest 450 518 34,000  Level Anchorage Center
Sat 03:54:23 55.1333 172.6667 246° West 430 495 34,000  Level Anchorage Center
Sat 03:55:23 55.0667 172.4500 242° Southwest 450 518 34,000  Level Anchorage Center
Sat 03:56:23 55.0167 172.2833 242° Southwest 450 518 34,000  Level Anchorage Center
Sat 03:57:23 54.9500 172.0667 242° Southwest 460 529 34,000  Level Anchorage Center
Sat 03:58:23 54.9000 171.9000 243° Southwest 440 506 34,000  Level Anchorage Center
Sat 03:59:24 54.8167 171.7167 232° Southwest 450 518 34,000  Level Anchorage Center
Sat 04:00:23 54.7500 171.5667 232° Southwest 440 506 34,000  Level Anchorage Center
Sat 04:01:23 54.6667 171.3667 234° Southwest 450 518 34,000  Level Anchorage Center
Sat 04:02:23 54.6000 171.2167 233° Southwest 460 529 34,000  Level Anchorage Center
Sat 04:03:24 54.5333 171.0167 240° Southwest 450 518 34,000  Level Anchorage Center
Sat 04:04:23 54.4500 170.8333 232° Southwest 460 529 34,000  Level Anchorage Center
Sat 04:05:24 54.3833 170.6833 233° Southwest 460 529 34,000  Level Anchorage Center
Sat 04:06:24 54.3000 170.4833 235° Southwest 460 529 34,000  Level Anchorage Center
Sat 04:07:24 54.2333 170.3333 233° Southwest 470 541 34,000  Level Anchorage Center
Sat 04:08:24 54.1500 170.1500 232° Southwest 460 529 34,000  Level Anchorage Center
Sat 04:09:24 54.0833 170.0000 233° Southwest 460 529 34,000  Level Anchorage Center
Sat 04:10:24 54.0000 169.8000 235° Southwest 460 529 34,000  Level Anchorage Center
Sat 04:11:24 53.9167 169.6167 232° Southwest 460 529 34,000  Level Anchorage Center
Sat 04:12:24 53.8500 169.4667 233° Southwest 460 529 34,000  Level Anchorage Center
Sat 04:13:24 53.7500 169.2833 227° Southwest 460 529 34,000  Level Anchorage Center
Sat 04:14:24 53.7000 169.1333 241° Southwest 460 529 34,000  Level Anchorage Center
Sat 04:20:26 53.4167 168.2333 239° Southwest 441 507 34,000  Level Anchorage Center
Sat 04:20:49 53.3833 168.1500 239° Southwest 440 506 34,000  Level Anchorage Center
Sat 04:29:27 52.7667 166.4667 238° Southwest 438 504 34,000  Level Anchorage Center
Sat 04:39:04 52.1500 164.8500 236° Southwest 440 506 34,000  Level Anchorage Center
Sat 04:46:31 51.6500 163.6500 236° Southwest 424 488 34,000  Level Anchorage Center
Sat 04:48:40 51.5000 163.2667 236° Southwest 418 481 34,000  Level Anchorage Center
Sat 04:58:16 50.8500 161.7667 235° Southwest 411 473 34,000 105 Level Anchorage Center
Sat 05:07:44 50.2000 160.3500 233° Southwest 413 475 36,000  Climbing Anchorage Center
Sat 05:08:00 50.1894 160.3312 234° Southwest 411 473 34,000 -1,579 Descending FlightAware Transoceanic
Sat 05:09:00 50.1224 160.1898 233° Southwest 411 473 34,000  Level FlightAware Transoceanic
Sat 05:10:00 50.0552 160.0489 233° Southwest 411 473 34,000  Level FlightAware Transoceanic
Sat 05:11:00 49.9878 159.9083 233° Southwest 411 473 34,000  Level FlightAware Transoceanic
Sat 05:12:00 49.9203 159.7681 233° Southwest 411 473 34,000 1,000 Level FlightAware Transoceanic
Sat 05:13:00 49.8556 159.6337 233° Southwest 413 475 36,000 1,000 Climbing FlightAware Transoceanic
Sat 05:14:00 49.7862 159.4916 233° Southwest 413 475 36,000  Level FlightAware Transoceanic
Sat 05:15:00 49.7167 159.3500 233° Southwest 413 475 36,000  Level FlightAware Transoceanic
Sat 05:16:00 49.6515 159.2170 233° Southwest 413 475 36,000  Level FlightAware Transoceanic
Sat 05:17:00 49.5863 159.0844 233° Southwest 413 475 36,000  Level FlightAware Transoceanic
Sat 05:18:00 49.5208 158.9521 233° Southwest 413 475 36,000  Level FlightAware Transoceanic
Sat 05:19:00 49.4553 158.8201 233° Southwest 413 475 36,000  Level FlightAware Transoceanic
Sat 05:20:00 49.3895 158.6886 232° Southwest 413 475 36,000  Level FlightAware Transoceanic
Sat 05:21:00 49.3237 158.5573 232° Southwest 413 475 36,000  Level FlightAware Transoceanic
Sat 05:22:00 49.2576 158.4264 232° Southwest 413 475 36,000  Level FlightAware Transoceanic
Sat 05:23:00 49.1915 158.2959 232° Southwest 413 475 36,000  Level FlightAware Transoceanic
Sat 05:24:00 49.1252 158.1657 232° Southwest 413 475 36,000  Level FlightAware Transoceanic
Sat 05:25:00 49.0587 158.0359 232° Southwest 413 475 36,000  Level FlightAware Transoceanic
Sat 05:26:00 48.9921 157.9064 232° Southwest 413 475 36,000  Level FlightAware Transoceanic
Sat 05:27:00 48.9253 157.7773 232° Southwest 413 475 36,000  Level FlightAware Transoceanic
Sat 05:28:00 48.8584 157.6485 232° Southwest 413 475 36,000  Level FlightAware Transoceanic
Sat 05:29:00 48.7914 157.5200 232° Southwest 413 475 36,000  Level FlightAware Transoceanic
Sat 05:30:00 48.7242 157.3919 231° Southwest 413 475 36,000  Level FlightAware Transoceanic
Sat 05:31:00 48.6569 157.2642 231° Southwest 413 475 36,000  Level FlightAware Transoceanic
Sat 05:32:00 48.5894 157.1367 231° Southwest 413 475 36,000  Level FlightAware Transoceanic
Sat 05:33:00 48.5218 157.0097 231° Southwest 413 475 36,000  Level FlightAware Transoceanic
Sat 05:34:00 48.4541 156.8829 231° Southwest 413 475 36,000  Level FlightAware Transoceanic
Sat 05:35:00 48.3862 156.7565 231° Southwest 413 475 36,000  Level FlightAware Transoceanic
Sat 05:36:00 48.3182 156.6304 231° Southwest 413 475 36,000  Level FlightAware Transoceanic
Sat 05:37:00 48.2500 156.5047 231° Southwest 413 475 36,000  Level FlightAware Transoceanic
Sat 05:38:00 48.1817 156.3793 231° Southwest 413 475 36,000  Level FlightAware Transoceanic
Sat 05:39:00 48.1133 156.2543 231° Southwest 413 475 36,000  Level FlightAware Transoceanic
Sat 05:40:00 48.0447 156.1295 231° Southwest 413 475 36,000  Level FlightAware Transoceanic
Sat 05:41:00 47.9760 156.0051 230° Southwest 413 475 36,000  Level FlightAware Transoceanic
Sat 05:42:00 47.9072 155.8811 230° Southwest 413 475 36,000  Level FlightAware Transoceanic
Sat 05:43:00 47.8382 155.7573 230° Southwest 413 475 36,000  Level FlightAware Transoceanic
Sat 05:44:00 47.7691 155.6339 230° Southwest 413 475 36,000  Level FlightAware Transoceanic
Sat 05:45:00 47.6999 155.5108 230° Southwest 413 475 36,000  Level FlightAware Transoceanic
Sat 05:46:00 47.6305 155.3881 230° Southwest 413 475 36,000  Level FlightAware Transoceanic
Sat 05:47:00 47.5610 155.2657 230° Southwest 413 475 36,000  Level FlightAware Transoceanic
Sat 05:48:00 47.4914 155.1435 230° Southwest 413 475 36,000  Level FlightAware Transoceanic
Sat 05:49:00 47.4216 155.0218 230° Southwest 413 475 36,000  Level FlightAware Transoceanic
Sat 05:50:00 47.3518 154.9003 230° Southwest 413 475 36,000  Level FlightAware Transoceanic
Sat 05:51:00 47.2817 154.7792 230° Southwest 413 475 36,000  Level FlightAware Transoceanic
Sat 05:52:00 47.2116 154.6584 229° Southwest 413 475 36,000  Level FlightAware Transoceanic
Sat 05:53:00 47.1413 154.5379 229° Southwest 413 475 36,000  Level FlightAware Transoceanic
Sat 05:54:00 47.0709 154.4177 229° Southwest 413 475 36,000  Level FlightAware Transoceanic
Sat 05:55:00 47.0004 154.2978 229° Southwest 413 475 36,000  Level FlightAware Transoceanic
Sat 05:56:00 46.9298 154.1783 229° Southwest 413 475 36,000  Level FlightAware Transoceanic
Sat 05:57:00 46.8590 154.0591 229° Southwest 413 475 36,000  Level FlightAware Transoceanic
Sat 05:58:00 46.7881 153.9401 229° Southwest 413 475 36,000  Level FlightAware Transoceanic
Sat 05:59:00 46.7171 153.8215 229° Southwest 413 475 36,000  Level FlightAware Transoceanic
Sat 06:00:00 46.6460 153.7032 229° Southwest 413 475 36,000  Level FlightAware Transoceanic
Sat 06:01:00 46.5747 153.5853 229° Southwest 413 475 36,000  Level FlightAware Transoceanic
Sat 06:02:00 46.5034 153.4676 229° Southwest 413 475 36,000  Level FlightAware Transoceanic
Sat 06:03:00 46.4319 153.3502 228° Southwest 413 475 36,000  Level FlightAware Transoceanic
Sat 06:04:00 46.3603 153.2332 228° Southwest 413 475 36,000  Level FlightAware Transoceanic
Sat 06:05:00 46.2885 153.1164 228° Southwest 413 475 36,000  Level FlightAware Transoceanic
Sat 06:06:00 46.2110 152.9909 228° Southwest  Level FlightAware Approximate
Sat 06:07:00 46.2056 152.9814 229° Southwest  Level FlightAware Approximate
Sat 06:08:00 46.1297 152.8541 229° Southwest  Level FlightAware Approximate
Sat 06:09:00 46.0536 152.7271 229° Southwest  Level FlightAware Approximate
Sat 06:10:00 45.9773 152.6004 229° Southwest  Level FlightAware Approximate
Sat 06:11:00 45.9009 152.4741 229° Southwest  Level FlightAware Approximate
Sat 06:12:00 45.8244 152.3482 229° Southwest  Level FlightAware Approximate
Sat 06:13:00 45.7477 152.2226 229° Southwest  Level FlightAware Approximate
Sat 06:14:00 45.6709 152.0973 229° Southwest  Level FlightAware Approximate
Sat 06:15:00 45.5940 151.9724 229° Southwest  Level FlightAware Approximate
Sat 06:16:00 45.5169 151.8478 229° Southwest  Level FlightAware Approximate
Sat 06:17:00 45.4397 151.7236 228° Southwest  Level FlightAware Approximate
Sat 06:18:00 45.3624 151.5997 228° Southwest  Level FlightAware Approximate
Sat 06:19:00 45.2849 151.4762 228° Southwest  Level FlightAware Approximate
Sat 06:20:00 45.2073 151.3529 228° Southwest  Level FlightAware Approximate
Sat 06:21:00 45.1296 151.2301 228° Southwest  Level FlightAware Approximate
Sat 06:22:00 45.0517 151.1075 228° Southwest  Level FlightAware Approximate
Sat 06:23:00 44.9737 150.9853 228° Southwest  Level FlightAware Approximate
Sat 06:24:00 44.8956 150.8634 228° Southwest  Level FlightAware Approximate
Sat 06:25:00 44.8173 150.7419 228° Southwest  Level FlightAware Approximate
Sat 06:26:00 44.7389 150.6207 228° Southwest  Level FlightAware Approximate
Sat 06:27:00 44.6604 150.4998 228° Southwest  Level FlightAware Approximate
Sat 06:28:00 44.5817 150.3792 228° Southwest  Level FlightAware Approximate
Sat 06:29:00 44.5030 150.2590 227° Southwest  Level FlightAware Approximate
Sat 06:30:00 44.4241 150.1391 227° Southwest  Level FlightAware Approximate
Sat 06:31:00 44.3451 150.0195 227° Southwest  Level FlightAware Approximate
Sat 06:32:00 44.2659 149.9002 227° Southwest  Level FlightAware Approximate
Sat 06:33:00 44.1866 149.7812 227° Southwest  Level FlightAware Approximate
Sat 06:34:00 44.1073 149.6626 227° Southwest  Level FlightAware Approximate
Sat 06:35:00 44.0277 149.5443 227° Southwest  Level FlightAware Approximate
Sat 06:36:00 43.9481 149.4263 227° Southwest  Level FlightAware Approximate
Sat 06:37:00 43.8683 149.3086 227° Southwest  Level FlightAware Approximate
Sat 06:38:00 43.7885 149.1913 227° Southwest  Level FlightAware Approximate
Sat 06:39:00 43.7085 149.0742 227° Southwest  Level FlightAware Approximate
Sat 06:40:00 43.6283 148.9575 227° Southwest  Level FlightAware Approximate
Sat 06:41:00 43.5481 148.8411 226° Southwest  Level FlightAware Approximate
Sat 06:42:00 43.4678 148.7250 226° Southwest  Level FlightAware Approximate
Sat 06:43:00 43.3873 148.6092 226° Southwest  Level FlightAware Approximate
Sat 06:44:00 43.3067 148.4937 226° Southwest  Level FlightAware Approximate
Sat 06:45:00 43.2260 148.3785 226° Southwest  Level FlightAware Approximate
Sat 06:46:00 43.1452 148.2636 226° Southwest  Level FlightAware Approximate
Sat 06:47:00 43.0642 148.1490 226° Southwest  Level FlightAware Approximate
Sat 06:48:00 42.9832 148.0347 226° Southwest  Level FlightAware Approximate
Sat 06:49:00 42.9020 147.9207 226° Southwest  Level FlightAware Approximate
Sat 06:50:00 42.8208 147.8071 226° Southwest  Level FlightAware Approximate
Sat 06:51:00 42.7394 147.6937 226° Southwest  Level FlightAware Approximate
Sat 06:52:00 42.6579 147.5806 226° Southwest  Level FlightAware Approximate
Sat 06:53:00 42.5763 147.4678 226° Southwest  Level FlightAware Approximate
Sat 06:54:00 42.4945 147.3553 225° Southwest  Level FlightAware Approximate
Sat 06:55:00 42.4127 147.2431 225° Southwest  Level FlightAware Approximate
Sat 06:56:00 42.3308 147.1312 225° Southwest  Level FlightAware Approximate
Sat 06:57:00 42.2487 147.0196 225° Southwest  Level FlightAware Approximate
Sat 06:58:00 42.1666 146.9083 225° Southwest  Level FlightAware Approximate
Sat 06:59:00 42.0843 146.7973 225° Southwest  Level FlightAware Approximate
Sat 07:00:00 42.0020 146.6865 225° Southwest  Level FlightAware Approximate
Sat 07:01:00 41.9195 146.5760 225° Southwest  Level FlightAware Approximate
Sat 07:02:00 41.8371 146.4656 225° Southwest  Level FlightAware Approximate
Sat 07:03:00 41.7547 146.3553 225° Southwest  Level FlightAware Approximate
Sat 07:04:00 41.6722 146.2453 225° Southwest  Level FlightAware Approximate
Sat 07:05:00 41.5896 146.1356 225° Southwest  Level FlightAware Approximate
Sat 07:06:00 41.5069 146.0262 225° Southwest  Level FlightAware Approximate
Sat 07:07:00 41.4241 145.9171 225° Southwest  Level FlightAware Approximate
Sat 07:08:00 41.3412 145.8082 225° Southwest  Level FlightAware Approximate
Sat 07:09:00 41.2581 145.6996 225° Southwest  Level FlightAware Approximate
Sat 07:10:00 41.1750 145.5913 224° Southwest  Level FlightAware Approximate
Sat 07:11:00 41.0918 145.4832 224° Southwest  Level FlightAware Approximate
Sat 07:12:00 41.0084 145.3755 224° Southwest  Level FlightAware Approximate
Sat 07:13:00 40.9250 145.2680 224° Southwest  Level FlightAware Approximate
Sat 07:14:00 40.8415 145.1608 224° Southwest  Level FlightAware Approximate
Sat 07:15:00 40.7579 145.0538 224° Southwest  Level FlightAware Approximate
Sat 07:16:00 40.6741 144.9471 224° Southwest  Level FlightAware Approximate
Sat 07:17:00 40.5903 144.8407 224° Southwest  Level FlightAware Approximate
Sat 07:18:00 40.5064 144.7346 224° Southwest  Level FlightAware Approximate
Sat 07:19:00 40.4224 144.6287 224° Southwest  Level FlightAware Approximate
Sat 07:20:00 40.3382 144.5231 224° Southwest  Level FlightAware Approximate
Sat 07:21:00 40.2540 144.4177 224° Southwest  Level FlightAware Approximate
Sat 07:22:00 40.1697 144.3126 224° Southwest  Level FlightAware Approximate
Sat 07:23:00 40.0853 144.2078 224° Southwest  Level FlightAware Approximate
Sat 07:24:00 40.0008 144.1032 223° Southwest  Level FlightAware Approximate
Sat 07:25:00 39.9172 144.0001 223° Southwest  Level FlightAware Approximate
Sat 07:26:00 39.8335 143.8972 223° Southwest  Level FlightAware Approximate
Sat 07:27:00 39.7497 143.7946 223° Southwest  Level FlightAware Approximate
Sat 07:28:00 39.6658 143.6922 223° Southwest  Level FlightAware Approximate
Sat 07:29:00 39.5818 143.5901 223° Southwest  Level FlightAware Approximate
Sat 07:30:00 39.4977 143.4882 223° Southwest  Level FlightAware Approximate
Sat 07:31:00 39.4135 143.3866 223° Southwest  Level FlightAware Approximate
Sat 07:32:00 39.3293 143.2852 223° Southwest  Level FlightAware Approximate
Sat 07:33:00 39.2448 143.1843 223° Southwest  Level FlightAware Approximate
Sat 07:34:00 39.1600 143.0838 223° Southwest  Level FlightAware Approximate
Sat 07:35:00 39.0752 142.9836 223° Southwest  Level FlightAware Approximate
Sat 07:36:00 38.9903 142.8836 222° Southwest  Level FlightAware Approximate
Sat 07:37:00 38.9053 142.7838 222° Southwest  Level FlightAware Approximate
Sat 07:38:00 38.8203 142.6843 222° Southwest  Level FlightAware Approximate
Sat 07:39:00 38.7351 142.5850 222° Southwest  Level FlightAware Approximate
Sat 07:40:00 38.6499 142.4859 222° Southwest  Level FlightAware Approximate
Sat 07:41:00 38.5646 142.3871 222° Southwest  Level FlightAware Approximate
Sat 07:42:00 38.4792 142.2885 222° Southwest  Level FlightAware Approximate
Sat 07:43:00 38.3937 142.1902 222° Southwest  Level FlightAware Approximate
Sat 07:44:00 38.3081 142.0921 222° Southwest  Level FlightAware Approximate
Sat 07:45:00 38.2225 141.9942 222° Southwest  Level FlightAware Approximate
Sat 07:46:00 38.1367 141.8965 222° Southwest  Level FlightAware Approximate
Sat 07:47:00 38.0509 141.7991 222° Southwest  Level FlightAware Approximate
Sat 07:48:00 37.9650 141.7019 222° Southwest  Level FlightAware Approximate
Sat 07:49:00 37.8791 141.6049 222° Southwest  Level FlightAware Approximate
Sat 07:50:00 37.7930 141.5082 222° Southwest  Level FlightAware Approximate
Sat 07:51:00 37.7069 141.4117 222° Southwest  Level FlightAware Approximate
Sat 07:52:00 37.6231 141.3122 225° Southwest  Level FlightAware Approximate
Sat 07:53:00 37.5388 141.2133 222° Southwest  Level FlightAware Approximate
Sat 07:54:00 37.4518 141.1185 218° Southwest  Level FlightAware Approximate
Sat 07:55:00 37.3639 141.0251 221° Southwest  Level FlightAware Approximate
Sat 07:56:00 37.2772 140.9299 221° Southwest  Level FlightAware Approximate
Sat 07:57:00 37.1883 140.8382 219° Southwest  Level FlightAware Approximate
Sat 07:58:00 37.1026 140.7424 227° Southwest  Level FlightAware Approximate
Sat 07:59:00 37.0183 140.6443 222° Southwest  Level FlightAware Approximate
Sat 08:00:00 36.9322 140.5489 219° Southwest  Level FlightAware Approximate
Sat 08:01:00 36.8424 140.4590 219° Southwest  Level FlightAware Approximate
Sat 08:02:00 36.7574 140.3622 224° Southwest  Level FlightAware Approximate
Sat 08:03:00 36.6551 140.3109 202° Southwest  Level FlightAware Approximate
Sat 08:04:00 36.5483 140.2575 202° Southwest  Level FlightAware Approximate
Sat 08:05:00 36.4416 140.2040 202° Southwest  Level FlightAware Approximate
Sat 08:06:00 36.3348 140.1507 202° Southwest  Level FlightAware Approximate
Sat 08:07:00 36.2281 140.0973 202° Southwest  Level FlightAware Approximate
Sat 08:08:00 36.1214 140.0440 202° Southwest  Level FlightAware Approximate
Sat 08:09:00 36.0147 139.9906 202° Southwest  Level FlightAware Approximate
Sat 08:10:00 35.9070 139.9412 195° South  Level FlightAware Approximate
Sat 08:11:00 35.7994 139.8913 202° Southwest  Level FlightAware Approximate
Sat 08:12:00 35.6905 139.8462 198° South  Level FlightAware Approximate
Sat 08:13:00 35.5847 139.7927 211° Southwest  Level FlightAware Approximate
Sat 08:14:00 35.5500 139.7667 211° Southwest  Level FlightAware Approximate
Sat 08:15:00 35.5523 139.7797 211° Southwest  Level Estimated
Sat 08:16:00 35.5523 139.7797 211° Southwest  Level Estimated
Sat 08:17:00 35.5523 139.7797 211° Southwest  Level Estimated
Sat 08:18:00 35.5523 139.7797 211° Southwest  Level Estimated
Sat 08:19:00 35.5523 139.7797 211° Southwest  Level Estimated
Sat 08:20:00 35.5523 139.7797 211° Southwest  Level Estimated
Sat 08:21:00 35.5523 139.7797 211° Southwest  Level Estimated
Sat 08:22:00 35.5523 139.7797 211° Southwest  Level Estimated
Sat 08:23:00 35.5523 139.7797 211° Southwest  Level Estimated
Sat 08:24:00 35.5523 139.7797 211° Southwest  Level Estimated
Sat 08:25:00 35.5523 139.7797 211° Southwest  Level Estimated
Sat 08:26:00 35.5523 139.7797 211° Southwest  Level Estimated
Sat 08:27:00 35.5523 139.7797 211° Southwest  Level Estimated
Sat 08:28:00 35.5523 139.7797 211° Southwest  Level Estimated
Sat 08:29:00 35.5523 139.7797 211° Southwest  Level Estimated
Sat 08:30:00 35.5523 139.7797 211° Southwest  Level Estimated
Sat 08:31:00 35.5523 139.7797 211° Southwest  Level Estimated
Sat 08:32:00 35.5523 139.7797 211° Southwest  Level Estimated
Sat 08:33:00 35.5523 139.7797 211° Southwest  Level Estimated
Sat 08:34:00 35.5523 139.7797 211° Southwest  Level Estimated
Sat 08:35:00 35.5523 139.7797 211° Southwest  Level Estimated

Login

Don't have an account? Register now (free) for customized features, flight alerts, and more!